sensor_id;sensor_type;location;lat;lon;timestamp;P1;durP1;ratioP1;P2;durP2;ratioP2
4758;SDS011;2393;50.560;12.636;2023-09-18T00:01:54;5.70;;;2.13;;
4758;SDS011;2393;50.560;12.636;2023-09-18T00:04:24;2.70;;;2.00;;
4758;SDS011;2393;50.560;12.636;2023-09-18T00:06:53;4.83;;;2.40;;
4758;SDS011;2393;50.560;12.636;2023-09-18T00:09:23;1.77;;;1.67;;
4758;SDS011;2393;50.560;12.636;2023-09-18T00:11:52;2.73;;;2.53;;
4758;SDS011;2393;50.560;12.636;2023-09-18T00:14:23;1.83;;;1.73;;
4758;SDS011;2393;50.560;12.636;2023-09-18T00:16:52;2.63;;;1.80;;
4758;SDS011;2393;50.560;12.636;2023-09-18T00:19:25;1.77;;;1.67;;
4758;SDS011;2393;50.560;12.636;2023-09-18T00:21:54;1.80;;;1.70;;
4758;SDS011;2393;50.560;12.636;2023-09-18T00:24:27;2.00;;;1.80;;
4758;SDS011;2393;50.560;12.636;2023-09-18T00:26:58;1.73;;;1.63;;
4758;SDS011;2393;50.560;12.636;2023-09-18T00:29:29;1.70;;;1.67;;
4758;SDS011;2393;50.560;12.636;2023-09-18T00:31:58;1.87;;;1.73;;
4758;SDS011;2393;50.560;12.636;2023-09-18T00:34:27;1.97;;;1.87;;
4758;SDS011;2393;50.560;12.636;2023-09-18T00:36:59;2.93;;;2.30;;
4758;SDS011;2393;50.560;12.636;2023-09-18T00:39:28;1.50;;;1.40;;
4758;SDS011;2393;50.560;12.636;2023-09-18T00:42:00;2.00;;;1.80;;
4758;SDS011;2393;50.560;12.636;2023-09-18T00:44:30;1.50;;;1.50;;
4758;SDS011;2393;50.560;12.636;2023-09-18T00:46:59;2.30;;;2.10;;
4758;SDS011;2393;50.560;12.636;2023-09-18T00:49:28;2.60;;;2.00;;
4758;SDS011;2393;50.560;12.636;2023-09-18T00:51:58;2.03;;;1.90;;
4758;SDS011;2393;50.560;12.636;2023-09-18T00:54:28;2.73;;;2.00;;
4758;SDS011;2393;50.560;12.636;2023-09-18T00:56:57;2.20;;;2.00;;
4758;SDS011;2393;50.560;12.636;2023-09-18T00:59:29;2.30;;;1.80;;
4758;SDS011;2393;50.560;12.636;2023-09-18T01:01:59;1.93;;;1.83;;
4758;SDS011;2393;50.560;12.636;2023-09-18T01:04:30;2.90;;;2.17;;
4758;SDS011;2393;50.560;12.636;2023-09-18T01:07:01;2.30;;;2.10;;
4758;SDS011;2393;50.560;12.636;2023-09-18T01:09:31;2.00;;;1.90;;
4758;SDS011;2393;50.560;12.636;2023-09-18T01:12:05;1.50;;;1.40;;
4758;SDS011;2393;50.560;12.636;2023-09-18T01:14:44;1.90;;;1.80;;
4758;SDS011;2393;50.560;12.636;2023-09-18T01:17:23;2.30;;;2.10;;
4758;SDS011;2393;50.560;12.636;2023-09-18T01:19:54;1.80;;;1.70;;
4758;SDS011;2393;50.560;12.636;2023-09-18T01:22:24;1.93;;;1.83;;
4758;SDS011;2393;50.560;12.636;2023-09-18T01:24:55;1.70;;;1.60;;
4758;SDS011;2393;50.560;12.636;2023-09-18T01:27:24;2.00;;;1.90;;
4758;SDS011;2393;50.560;12.636;2023-09-18T01:29:53;1.50;;;1.40;;
4758;SDS011;2393;50.560;12.636;2023-09-18T01:32:23;2.37;;;2.17;;
4758;SDS011;2393;50.560;12.636;2023-09-18T01:34:57;1.60;;;1.50;;
4758;SDS011;2393;50.560;12.636;2023-09-18T01:37:29;1.60;;;1.50;;
4758;SDS011;2393;50.560;12.636;2023-09-18T01:40:02;5.70;;;2.00;;
4758;SDS011;2393;50.560;12.636;2023-09-18T01:42:33;2.17;;;1.50;;
4758;SDS011;2393;50.560;12.636;2023-09-18T01:45:04;1.63;;;1.53;;
4758;SDS011;2393;50.560;12.636;2023-09-18T01:47:35;1.70;;;1.60;;
4758;SDS011;2393;50.560;12.636;2023-09-18T01:50:06;1.70;;;1.70;;
4758;SDS011;2393;50.560;12.636;2023-09-18T01:52:36;8.13;;;1.63;;
4758;SDS011;2393;50.560;12.636;2023-09-18T01:55:08;2.13;;;1.93;;
4758;SDS011;2393;50.560;12.636;2023-09-18T01:57:38;1.77;;;1.50;;
4758;SDS011;2393;50.560;12.636;2023-09-18T02:00:10;2.17;;;1.97;;
4758;SDS011;2393;50.560;12.636;2023-09-18T02:02:41;1.80;;;1.70;;
4758;SDS011;2393;50.560;12.636;2023-09-18T02:05:30;1.57;;;1.47;;
4758;SDS011;2393;50.560;12.636;2023-09-18T02:08:01;1.87;;;1.70;;
4758;SDS011;2393;50.560;12.636;2023-09-18T02:10:32;4.07;;;1.60;;
4758;SDS011;2393;50.560;12.636;2023-09-18T02:13:03;3.17;;;1.57;;
4758;SDS011;2393;50.560;12.636;2023-09-18T02:15:32;2.10;;;1.97;;
4758;SDS011;2393;50.560;12.636;2023-09-18T02:18:02;3.23;;;1.97;;
4758;SDS011;2393;50.560;12.636;2023-09-18T02:20:37;4.73;;;2.10;;
4758;SDS011;2393;50.560;12.636;2023-09-18T02:23:08;2.03;;;1.93;;
4758;SDS011;2393;50.560;12.636;2023-09-18T02:25:39;3.63;;;2.67;;
4758;SDS011;2393;50.560;12.636;2023-09-18T02:28:08;5.20;;;2.30;;
4758;SDS011;2393;50.560;12.636;2023-09-18T02:30:38;1.93;;;1.83;;
4758;SDS011;2393;50.560;12.636;2023-09-18T02:33:10;2.07;;;1.97;;
4758;SDS011;2393;50.560;12.636;2023-09-18T02:35:40;2.23;;;2.13;;
4758;SDS011;2393;50.560;12.636;2023-09-18T02:38:10;2.63;;;2.53;;
4758;SDS011;2393;50.560;12.636;2023-09-18T02:40:41;4.23;;;2.50;;
4758;SDS011;2393;50.560;12.636;2023-09-18T02:43:10;2.90;;;2.53;;
4758;SDS011;2393;50.560;12.636;2023-09-18T02:45:39;8.43;;;2.97;;
4758;SDS011;2393;50.560;12.636;2023-09-18T02:48:10;4.57;;;2.33;;
4758;SDS011;2393;50.560;12.636;2023-09-18T02:50:39;3.77;;;2.93;;
4758;SDS011;2393;50.560;12.636;2023-09-18T02:53:12;2.40;;;2.30;;
4758;SDS011;2393;50.560;12.636;2023-09-18T02:55:48;5.63;;;3.07;;
4758;SDS011;2393;50.560;12.636;2023-09-18T02:58:18;3.70;;;3.20;;
4758;SDS011;2393;50.560;12.636;2023-09-18T03:00:54;2.43;;;2.30;;
4758;SDS011;2393;50.560;12.636;2023-09-18T03:03:24;2.63;;;2.40;;
4758;SDS011;2393;50.560;12.636;2023-09-18T03:05:54;3.03;;;2.83;;
4758;SDS011;2393;50.560;12.636;2023-09-18T03:08:29;3.63;;;2.40;;
4758;SDS011;2393;50.560;12.636;2023-09-18T03:11:02;5.67;;;2.57;;
4758;SDS011;2393;50.560;12.636;2023-09-18T03:13:32;2.10;;;2.00;;
4758;SDS011;2393;50.560;12.636;2023-09-18T03:16:01;2.37;;;2.17;;
4758;SDS011;2393;50.560;12.636;2023-09-18T03:18:30;1.80;;;1.70;;
4758;SDS011;2393;50.560;12.636;2023-09-18T03:20:59;3.87;;;2.57;;
4758;SDS011;2393;50.560;12.636;2023-09-18T03:23:29;3.00;;;2.17;;
4758;SDS011;2393;50.560;12.636;2023-09-18T03:25:58;2.70;;;2.50;;
4758;SDS011;2393;50.560;12.636;2023-09-18T03:28:30;2.47;;;2.27;;
4758;SDS011;2393;50.560;12.636;2023-09-18T03:31:00;3.00;;;2.20;;
4758;SDS011;2393;50.560;12.636;2023-09-18T03:33:32;5.13;;;2.43;;
4758;SDS011;2393;50.560;12.636;2023-09-18T03:36:01;2.93;;;2.10;;
4758;SDS011;2393;50.560;12.636;2023-09-18T03:38:33;2.70;;;2.03;;
4758;SDS011;2393;50.560;12.636;2023-09-18T03:41:03;2.40;;;2.30;;
4758;SDS011;2393;50.560;12.636;2023-09-18T03:43:34;2.40;;;1.40;;
4758;SDS011;2393;50.560;12.636;2023-09-18T03:46:04;1.87;;;1.70;;
4758;SDS011;2393;50.560;12.636;2023-09-18T03:48:40;3.27;;;2.23;;
4758;SDS011;2393;50.560;12.636;2023-09-18T03:51:10;1.90;;;1.80;;
4758;SDS011;2393;50.560;12.636;2023-09-18T03:53:43;1.93;;;1.83;;
4758;SDS011;2393;50.560;12.636;2023-09-18T03:56:12;2.40;;;1.30;;
4758;SDS011;2393;50.560;12.636;2023-09-18T03:58:44;1.73;;;1.57;;
4758;SDS011;2393;50.560;12.636;2023-09-18T04:01:16;1.90;;;1.73;;
4758;SDS011;2393;50.560;12.636;2023-09-18T04:03:46;1.90;;;1.80;;
4758;SDS011;2393;50.560;12.636;2023-09-18T04:06:15;2.20;;;2.10;;
4758;SDS011;2393;50.560;12.636;2023-09-18T04:08:47;2.13;;;1.93;;
4758;SDS011;2393;50.560;12.636;2023-09-18T04:11:17;2.20;;;1.67;;
4758;SDS011;2393;50.560;12.636;2023-09-18T04:13:48;2.50;;;2.30;;
4758;SDS011;2393;50.560;12.636;2023-09-18T04:16:18;11.37;;;2.10;;
4758;SDS011;2393;50.560;12.636;2023-09-18T04:18:48;1.90;;;1.80;;
4758;SDS011;2393;50.560;12.636;2023-09-18T04:21:18;1.50;;;1.40;;
4758;SDS011;2393;50.560;12.636;2023-09-18T04:23:49;1.83;;;1.83;;
4758;SDS011;2393;50.560;12.636;2023-09-18T04:26:25;1.83;;;1.73;;
4758;SDS011;2393;50.560;12.636;2023-09-18T04:28:59;1.67;;;1.67;;
4758;SDS011;2393;50.560;12.636;2023-09-18T04:31:29;1.67;;;1.47;;
4758;SDS011;2393;50.560;12.636;2023-09-18T04:34:00;2.60;;;1.10;;
4758;SDS011;2393;50.560;12.636;2023-09-18T04:36:29;1.57;;;1.47;;
4758;SDS011;2393;50.560;12.636;2023-09-18T04:39:02;1.40;;;1.33;;
4758;SDS011;2393;50.560;12.636;2023-09-18T04:41:33;1.70;;;1.60;;
4758;SDS011;2393;50.560;12.636;2023-09-18T04:44:06;1.07;;;1.07;;
4758;SDS011;2393;50.560;12.636;2023-09-18T04:46:36;1.30;;;1.30;;
4758;SDS011;2393;50.560;12.636;2023-09-18T04:49:09;1.50;;;1.50;;
4758;SDS011;2393;50.560;12.636;2023-09-18T04:51:39;2.30;;;1.73;;
4758;SDS011;2393;50.560;12.636;2023-09-18T04:54:09;1.17;;;0.93;;
4758;SDS011;2393;50.560;12.636;2023-09-18T04:56:38;1.30;;;1.20;;
4758;SDS011;2393;50.560;12.636;2023-09-18T04:59:10;2.20;;;1.33;;
4758;SDS011;2393;50.560;12.636;2023-09-18T05:01:41;1.30;;;1.30;;
4758;SDS011;2393;50.560;12.636;2023-09-18T05:04:12;3.47;;;1.33;;
4758;SDS011;2393;50.560;12.636;2023-09-18T05:06:41;1.53;;;1.20;;
4758;SDS011;2393;50.560;12.636;2023-09-18T05:09:10;1.73;;;1.63;;
4758;SDS011;2393;50.560;12.636;2023-09-18T05:11:41;1.37;;;1.27;;
4758;SDS011;2393;50.560;12.636;2023-09-18T05:14:12;1.63;;;1.23;;
4758;SDS011;2393;50.560;12.636;2023-09-18T05:16:43;2.53;;;1.20;;
4758;SDS011;2393;50.560;12.636;2023-09-18T05:19:13;2.93;;;1.27;;
4758;SDS011;2393;50.560;12.636;2023-09-18T05:21:42;1.33;;;1.30;;
4758;SDS011;2393;50.560;12.636;2023-09-18T05:24:11;1.23;;;1.10;;
4758;SDS011;2393;50.560;12.636;2023-09-18T05:26:41;1.30;;;1.30;;
4758;SDS011;2393;50.560;12.636;2023-09-18T05:29:13;1.60;;;1.50;;
4758;SDS011;2393;50.560;12.636;2023-09-18T05:31:44;1.33;;;1.17;;
4758;SDS011;2393;50.560;12.636;2023-09-18T05:34:14;1.10;;;1.00;;
4758;SDS011;2393;50.560;12.636;2023-09-18T05:36:44;1.60;;;1.00;;
4758;SDS011;2393;50.560;12.636;2023-09-18T05:39:13;1.07;;;1.00;;
4758;SDS011;2393;50.560;12.636;2023-09-18T05:41:44;1.00;;;1.00;;
4758;SDS011;2393;50.560;12.636;2023-09-18T05:44:15;1.03;;;1.03;;
4758;SDS011;2393;50.560;12.636;2023-09-18T05:46:44;1.17;;;1.10;;
4758;SDS011;2393;50.560;12.636;2023-09-18T05:49:14;1.17;;;1.17;;
4758;SDS011;2393;50.560;12.636;2023-09-18T05:51:44;5.77;;;1.00;;
4758;SDS011;2393;50.560;12.636;2023-09-18T05:54:15;1.60;;;1.30;;
4758;SDS011;2393;50.560;12.636;2023-09-18T05:56:44;2.50;;;0.97;;
4758;SDS011;2393;50.560;12.636;2023-09-18T05:59:15;1.00;;;0.90;;
4758;SDS011;2393;50.560;12.636;2023-09-18T06:01:46;1.30;;;1.20;;
4758;SDS011;2393;50.560;12.636;2023-09-18T06:04:16;1.17;;;1.17;;
4758;SDS011;2393;50.560;12.636;2023-09-18T06:06:46;2.63;;;1.10;;
4758;SDS011;2393;50.560;12.636;2023-09-18T06:09:15;1.23;;;1.23;;
4758;SDS011;2393;50.560;12.636;2023-09-18T06:11:45;1.90;;;1.17;;
4758;SDS011;2393;50.560;12.636;2023-09-18T06:14:16;1.10;;;1.10;;
4758;SDS011;2393;50.560;12.636;2023-09-18T06:16:45;1.03;;;0.97;;
4758;SDS011;2393;50.560;12.636;2023-09-18T06:19:15;1.27;;;1.17;;
4758;SDS011;2393;50.560;12.636;2023-09-18T06:21:45;1.00;;;1.00;;
4758;SDS011;2393;50.560;12.636;2023-09-18T06:24:16;0.83;;;0.83;;
4758;SDS011;2393;50.560;12.636;2023-09-18T06:26:46;1.83;;;1.23;;
4758;SDS011;2393;50.560;12.636;2023-09-18T06:29:17;1.10;;;1.10;;
4758;SDS011;2393;50.560;12.636;2023-09-18T06:31:51;1.27;;;1.00;;
4758;SDS011;2393;50.560;12.636;2023-09-18T06:34:23;1.07;;;1.07;;
4758;SDS011;2393;50.560;12.636;2023-09-18T06:36:53;2.00;;;0.93;;
4758;SDS011;2393;50.560;12.636;2023-09-18T06:39:22;1.70;;;0.97;;
4758;SDS011;2393;50.560;12.636;2023-09-18T06:41:53;0.73;;;0.73;;
4758;SDS011;2393;50.560;12.636;2023-09-18T06:44:25;0.80;;;0.80;;
4758;SDS011;2393;50.560;12.636;2023-09-18T06:46:55;0.93;;;0.83;;
4758;SDS011;2393;50.560;12.636;2023-09-18T06:49:24;1.57;;;1.00;;
4758;SDS011;2393;50.560;12.636;2023-09-18T06:51:54;1.47;;;1.33;;
4758;SDS011;2393;50.560;12.636;2023-09-18T06:54:25;1.60;;;1.50;;
4758;SDS011;2393;50.560;12.636;2023-09-18T06:56:54;2.60;;;1.00;;
4758;SDS011;2393;50.560;12.636;2023-09-18T06:59:25;1.00;;;1.00;;
4758;SDS011;2393;50.560;12.636;2023-09-18T07:01:58;1.07;;;1.03;;
4758;SDS011;2393;50.560;12.636;2023-09-18T07:04:28;1.00;;;1.00;;
4758;SDS011;2393;50.560;12.636;2023-09-18T07:06:57;1.43;;;0.90;;
4758;SDS011;2393;50.560;12.636;2023-09-18T07:09:27;1.07;;;1.07;;
4758;SDS011;2393;50.560;12.636;2023-09-18T07:11:56;0.83;;;0.83;;
4758;SDS011;2393;50.560;12.636;2023-09-18T07:14:27;0.90;;;0.90;;
4758;SDS011;2393;50.560;12.636;2023-09-18T07:16:58;1.20;;;0.80;;
4758;SDS011;2393;50.560;12.636;2023-09-18T07:19:28;0.93;;;0.93;;
4758;SDS011;2393;50.560;12.636;2023-09-18T07:22:00;3.03;;;1.30;;
4758;SDS011;2393;50.560;12.636;2023-09-18T07:24:29;1.23;;;1.17;;
4758;SDS011;2393;50.560;12.636;2023-09-18T07:26:59;1.20;;;1.20;;
4758;SDS011;2393;50.560;12.636;2023-09-18T07:29:31;0.90;;;0.90;;
4758;SDS011;2393;50.560;12.636;2023-09-18T07:32:02;1.33;;;1.20;;
4758;SDS011;2393;50.560;12.636;2023-09-18T07:34:31;1.10;;;1.10;;
4758;SDS011;2393;50.560;12.636;2023-09-18T07:37:02;1.07;;;1.07;;
4758;SDS011;2393;50.560;12.636;2023-09-18T07:39:32;1.10;;;1.10;;
4758;SDS011;2393;50.560;12.636;2023-09-18T07:42:02;1.33;;;0.80;;
4758;SDS011;2393;50.560;12.636;2023-09-18T07:44:33;1.23;;;1.13;;
4758;SDS011;2393;50.560;12.636;2023-09-18T07:47:03;1.43;;;0.80;;
4758;SDS011;2393;50.560;12.636;2023-09-18T07:49:32;2.60;;;1.20;;
4758;SDS011;2393;50.560;12.636;2023-09-18T07:52:02;0.80;;;0.80;;
4758;SDS011;2393;50.560;12.636;2023-09-18T07:54:32;0.80;;;0.80;;
4758;SDS011;2393;50.560;12.636;2023-09-18T07:57:02;1.20;;;1.20;;
4758;SDS011;2393;50.560;12.636;2023-09-18T07:59:31;2.33;;;1.03;;
4758;SDS011;2393;50.560;12.636;2023-09-18T08:02:02;1.00;;;1.00;;
4758;SDS011;2393;50.560;12.636;2023-09-18T08:04:31;1.10;;;1.07;;
4758;SDS011;2393;50.560;12.636;2023-09-18T08:07:00;1.37;;;1.27;;
4758;SDS011;2393;50.560;12.636;2023-09-18T08:09:32;1.30;;;1.20;;
4758;SDS011;2393;50.560;12.636;2023-09-18T08:12:03;1.30;;;1.20;;
4758;SDS011;2393;50.560;12.636;2023-09-18T08:14:33;1.70;;;1.60;;
4758;SDS011;2393;50.560;12.636;2023-09-18T08:17:05;1.93;;;1.30;;
4758;SDS011;2393;50.560;12.636;2023-09-18T08:19:38;3.10;;;0.93;;
4758;SDS011;2393;50.560;12.636;2023-09-18T08:22:08;1.50;;;1.40;;
4758;SDS011;2393;50.560;12.636;2023-09-18T08:24:39;1.23;;;1.13;;
4758;SDS011;2393;50.560;12.636;2023-09-18T08:27:08;1.67;;;1.57;;
4758;SDS011;2393;50.560;12.636;2023-09-18T08:29:39;2.10;;;1.43;;
4758;SDS011;2393;50.560;12.636;2023-09-18T08:32:10;1.00;;;0.97;;
4758;SDS011;2393;50.560;12.636;2023-09-18T08:34:41;2.47;;;2.37;;
4758;SDS011;2393;50.560;12.636;2023-09-18T08:37:11;3.07;;;1.80;;
4758;SDS011;2393;50.560;12.636;2023-09-18T08:39:40;1.63;;;1.53;;
4758;SDS011;2393;50.560;12.636;2023-09-18T08:42:09;1.97;;;1.87;;
4758;SDS011;2393;50.560;12.636;2023-09-18T08:44:40;1.70;;;1.60;;
4758;SDS011;2393;50.560;12.636;2023-09-18T08:47:14;1.47;;;1.37;;
4758;SDS011;2393;50.560;12.636;2023-09-18T08:49:45;2.30;;;1.47;;
4758;SDS011;2393;50.560;12.636;2023-09-18T08:52:17;2.00;;;1.50;;
4758;SDS011;2393;50.560;12.636;2023-09-18T08:54:47;1.43;;;1.33;;
4758;SDS011;2393;50.560;12.636;2023-09-18T08:57:18;5.00;;;1.80;;
4758;SDS011;2393;50.560;12.636;2023-09-18T08:59:48;3.23;;;1.37;;
4758;SDS011;2393;50.560;12.636;2023-09-18T09:02:20;2.20;;;1.50;;
4758;SDS011;2393;50.560;12.636;2023-09-18T09:04:49;6.30;;;1.10;;
4758;SDS011;2393;50.560;12.636;2023-09-18T09:07:21;1.10;;;1.10;;
4758;SDS011;2393;50.560;12.636;2023-09-18T09:09:52;2.40;;;1.27;;
4758;SDS011;2393;50.560;12.636;2023-09-18T09:15:21;2.03;;;1.60;;
4758;SDS011;2393;50.560;12.636;2023-09-18T09:18:01;1.60;;;1.50;;
4758;SDS011;2393;50.560;12.636;2023-09-18T09:20:33;3.00;;;1.83;;
4758;SDS011;2393;50.560;12.636;2023-09-18T09:23:08;2.67;;;1.90;;
4758;SDS011;2393;50.560;12.636;2023-09-18T09:25:38;3.00;;;1.50;;
4758;SDS011;2393;50.560;12.636;2023-09-18T09:28:08;1.77;;;1.67;;
4758;SDS011;2393;50.560;12.636;2023-09-18T09:30:43;1.80;;;1.70;;
4758;SDS011;2393;50.560;12.636;2023-09-18T09:33:16;2.20;;;1.70;;
4758;SDS011;2393;50.560;12.636;2023-09-18T09:35:46;2.10;;;1.90;;
4758;SDS011;2393;50.560;12.636;2023-09-18T09:38:16;2.27;;;2.07;;
4758;SDS011;2393;50.560;12.636;2023-09-18T09:40:50;3.30;;;2.47;;
4758;SDS011;2393;50.560;12.636;2023-09-18T09:43:20;3.43;;;2.20;;
4758;SDS011;2393;50.560;12.636;2023-09-18T09:45:56;3.40;;;1.77;;
4758;SDS011;2393;50.560;12.636;2023-09-18T09:48:31;2.00;;;1.80;;
4758;SDS011;2393;50.560;12.636;2023-09-18T09:51:01;2.73;;;2.20;;
4758;SDS011;2393;50.560;12.636;2023-09-18T09:53:43;4.03;;;3.30;;
4758;SDS011;2393;50.560;12.636;2023-09-18T09:56:15;3.70;;;2.03;;
4758;SDS011;2393;50.560;12.636;2023-09-18T09:59:00;1.77;;;1.73;;
4758;SDS011;2393;50.560;12.636;2023-09-18T10:01:31;3.23;;;2.63;;
4758;SDS011;2393;50.560;12.636;2023-09-18T10:04:09;2.03;;;1.90;;
4758;SDS011;2393;50.560;12.636;2023-09-18T10:06:45;4.20;;;2.03;;
4758;SDS011;2393;50.560;12.636;2023-09-18T10:09:19;2.40;;;1.97;;
4758;SDS011;2393;50.560;12.636;2023-09-18T10:11:54;9.10;;;2.70;;
4758;SDS011;2393;50.560;12.636;2023-09-18T10:17:39;2.40;;;1.80;;
4758;SDS011;2393;50.560;12.636;2023-09-18T10:20:13;4.40;;;1.60;;
4758;SDS011;2393;50.560;12.636;2023-09-18T10:22:48;4.43;;;2.30;;
4758;SDS011;2393;50.560;12.636;2023-09-18T10:25:20;2.30;;;1.97;;
4758;SDS011;2393;50.560;12.636;2023-09-18T10:27:51;6.83;;;2.30;;
4758;SDS011;2393;50.560;12.636;2023-09-18T10:30:20;9.53;;;2.13;;
4758;SDS011;2393;50.560;12.636;2023-09-18T10:32:51;2.33;;;2.10;;
4758;SDS011;2393;50.560;12.636;2023-09-18T10:35:22;6.67;;;2.47;;
4758;SDS011;2393;50.560;12.636;2023-09-18T10:37:51;5.50;;;1.77;;
4758;SDS011;2393;50.560;12.636;2023-09-18T10:40:22;5.23;;;1.60;;
4758;SDS011;2393;50.560;12.636;2023-09-18T10:42:53;3.40;;;2.10;;
4758;SDS011;2393;50.560;12.636;2023-09-18T10:45:23;11.87;;;2.00;;
4758;SDS011;2393;50.560;12.636;2023-09-18T10:47:52;4.00;;;1.67;;
4758;SDS011;2393;50.560;12.636;2023-09-18T10:50:23;2.30;;;1.87;;
4758;SDS011;2393;50.560;12.636;2023-09-18T10:52:52;13.57;;;2.17;;
4758;SDS011;2393;50.560;12.636;2023-09-18T10:55:21;9.37;;;1.80;;
4758;SDS011;2393;50.560;12.636;2023-09-18T10:57:51;4.17;;;1.63;;
4758;SDS011;2393;50.560;12.636;2023-09-18T11:00:20;7.13;;;1.50;;
4758;SDS011;2393;50.560;12.636;2023-09-18T11:02:51;7.10;;;2.60;;
4758;SDS011;2393;50.560;12.636;2023-09-18T11:05:30;8.87;;;2.77;;
4758;SDS011;2393;50.560;12.636;2023-09-18T11:11:01;9.03;;;2.00;;
4758;SDS011;2393;50.560;12.636;2023-09-18T11:13:38;4.13;;;1.80;;
4758;SDS011;2393;50.560;12.636;2023-09-18T11:16:15;9.73;;;1.73;;
4758;SDS011;2393;50.560;12.636;2023-09-18T11:18:52;5.23;;;1.93;;
4758;SDS011;2393;50.560;12.636;2023-09-18T11:21:26;9.37;;;1.80;;
4758;SDS011;2393;50.560;12.636;2023-09-18T11:23:58;5.13;;;1.90;;
4758;SDS011;2393;50.560;12.636;2023-09-18T11:26:29;8.93;;;1.70;;
4758;SDS011;2393;50.560;12.636;2023-09-18T11:29:01;4.87;;;1.70;;
4758;SDS011;2393;50.560;12.636;2023-09-18T11:31:41;2.40;;;1.43;;
4758;SDS011;2393;50.560;12.636;2023-09-18T11:34:11;7.40;;;1.70;;
4758;SDS011;2393;50.560;12.636;2023-09-18T11:36:41;4.27;;;1.77;;
4758;SDS011;2393;50.560;12.636;2023-09-18T11:39:10;3.03;;;1.60;;
4758;SDS011;2393;50.560;12.636;2023-09-18T11:41:39;6.53;;;1.57;;
4758;SDS011;2393;50.560;12.636;2023-09-18T11:47:08;5.90;;;1.97;;
4758;SDS011;2393;50.560;12.636;2023-09-18T11:49:47;1.60;;;1.50;;
4758;SDS011;2393;50.560;12.636;2023-09-18T11:52:23;3.23;;;1.70;;
4758;SDS011;2393;50.560;12.636;2023-09-18T11:54:53;9.17;;;1.80;;
4758;SDS011;2393;50.560;12.636;2023-09-18T11:57:23;8.17;;;2.70;;
4758;SDS011;2393;50.560;12.636;2023-09-18T11:59:52;3.63;;;1.90;;
4758;SDS011;2393;50.560;12.636;2023-09-18T12:02:25;4.10;;;2.13;;
4758;SDS011;2393;50.560;12.636;2023-09-18T12:05:05;6.77;;;2.40;;
4758;SDS011;2393;50.560;12.636;2023-09-18T12:07:39;4.40;;;2.30;;
4758;SDS011;2393;50.560;12.636;2023-09-18T12:10:10;2.80;;;1.90;;
4758;SDS011;2393;50.560;12.636;2023-09-18T12:12:39;12.90;;;2.37;;
4758;SDS011;2393;50.560;12.636;2023-09-18T12:15:10;6.53;;;1.83;;
4758;SDS011;2393;50.560;12.636;2023-09-18T12:17:39;7.47;;;2.27;;
4758;SDS011;2393;50.560;12.636;2023-09-18T12:20:14;2.60;;;1.67;;
4758;SDS011;2393;50.560;12.636;2023-09-18T12:22:48;4.70;;;2.47;;
4758;SDS011;2393;50.560;12.636;2023-09-18T12:25:18;11.90;;;2.20;;
4758;SDS011;2393;50.560;12.636;2023-09-18T12:27:50;4.07;;;2.23;;
4758;SDS011;2393;50.560;12.636;2023-09-18T12:30:20;34.23;;;8.70;;
4758;SDS011;2393;50.560;12.636;2023-09-18T12:32:50;78.30;;;21.50;;
4758;SDS011;2393;50.560;12.636;2023-09-18T12:35:19;64.17;;;19.73;;
4758;SDS011;2393;50.560;12.636;2023-09-18T12:37:49;38.57;;;11.60;;
4758;SDS011;2393;50.560;12.636;2023-09-18T12:40:21;32.80;;;11.70;;
4758;SDS011;2393;50.560;12.636;2023-09-18T12:42:55;8.33;;;3.87;;
4758;SDS011;2393;50.560;12.636;2023-09-18T12:45:24;28.90;;;9.07;;
4758;SDS011;2393;50.560;12.636;2023-09-18T12:47:54;5.43;;;1.70;;
4758;SDS011;2393;50.560;12.636;2023-09-18T12:50:23;4.63;;;1.50;;
4758;SDS011;2393;50.560;12.636;2023-09-18T12:53:05;2.20;;;1.10;;
4758;SDS011;2393;50.560;12.636;2023-09-18T12:55:35;5.03;;;1.23;;
4758;SDS011;2393;50.560;12.636;2023-09-18T12:58:04;10.73;;;2.23;;
4758;SDS011;2393;50.560;12.636;2023-09-18T13:00:36;12.70;;;1.50;;
4758;SDS011;2393;50.560;12.636;2023-09-18T13:03:23;6.30;;;1.07;;
4758;SDS011;2393;50.560;12.636;2023-09-18T13:05:54;4.00;;;1.13;;
4758;SDS011;2393;50.560;12.636;2023-09-18T13:08:39;3.37;;;1.03;;
4758;SDS011;2393;50.560;12.636;2023-09-18T13:11:13;3.97;;;1.27;;
4758;SDS011;2393;50.560;12.636;2023-09-18T13:13:43;1.90;;;0.80;;
4758;SDS011;2393;50.560;12.636;2023-09-18T13:16:11;19.37;;;5.60;;
4758;SDS011;2393;50.560;12.636;2023-09-18T13:18:39;5.03;;;1.07;;
4758;SDS011;2393;50.560;12.636;2023-09-18T13:21:11;4.43;;;1.07;;
4758;SDS011;2393;50.560;12.636;2023-09-18T13:23:41;5.00;;;1.50;;
4758;SDS011;2393;50.560;12.636;2023-09-18T13:26:09;7.03;;;1.40;;
4758;SDS011;2393;50.560;12.636;2023-09-18T13:28:38;6.13;;;1.17;;
4758;SDS011;2393;50.560;12.636;2023-09-18T13:31:10;6.13;;;2.03;;
4758;SDS011;2393;50.560;12.636;2023-09-18T13:33:39;3.63;;;1.33;;
4758;SDS011;2393;50.560;12.636;2023-09-18T13:36:11;2.00;;;1.20;;
4758;SDS011;2393;50.560;12.636;2023-09-18T13:38:46;4.03;;;1.53;;
4758;SDS011;2393;50.560;12.636;2023-09-18T13:41:17;9.00;;;2.00;;
4758;SDS011;2393;50.560;12.636;2023-09-18T13:43:46;5.10;;;1.90;;
4758;SDS011;2393;50.560;12.636;2023-09-18T13:46:22;2.33;;;1.40;;
4758;SDS011;2393;50.560;12.636;2023-09-18T13:48:55;6.00;;;1.40;;
4758;SDS011;2393;50.560;12.636;2023-09-18T13:51:23;1.13;;;1.03;;
4758;SDS011;2393;50.560;12.636;2023-09-18T13:53:53;1.20;;;0.97;;
4758;SDS011;2393;50.560;12.636;2023-09-18T13:56:27;4.27;;;3.13;;
4758;SDS011;2393;50.560;12.636;2023-09-18T13:58:56;4.60;;;1.40;;
4758;SDS011;2393;50.560;12.636;2023-09-18T14:01:24;4.07;;;1.07;;
4758;SDS011;2393;50.560;12.636;2023-09-18T14:03:53;1.73;;;0.90;;
4758;SDS011;2393;50.560;12.636;2023-09-18T14:06:22;1.90;;;1.20;;
4758;SDS011;2393;50.560;12.636;2023-09-18T14:08:51;5.23;;;1.27;;
4758;SDS011;2393;50.560;12.636;2023-09-18T14:11:21;6.10;;;1.63;;
4758;SDS011;2393;50.560;12.636;2023-09-18T14:13:49;3.00;;;0.70;;
4758;SDS011;2393;50.560;12.636;2023-09-18T14:16:22;6.73;;;1.50;;
4758;SDS011;2393;50.560;12.636;2023-09-18T14:18:52;4.00;;;1.37;;
4758;SDS011;2393;50.560;12.636;2023-09-18T14:21:20;2.10;;;1.57;;
4758;SDS011;2393;50.560;12.636;2023-09-18T14:23:49;4.50;;;1.23;;
4758;SDS011;2393;50.560;12.636;2023-09-18T14:26:17;4.57;;;1.03;;
4758;SDS011;2393;50.560;12.636;2023-09-18T14:28:48;2.80;;;0.93;;
4758;SDS011;2393;50.560;12.636;2023-09-18T14:31:17;1.57;;;1.27;;
4758;SDS011;2393;50.560;12.636;2023-09-18T14:33:45;2.90;;;1.33;;
4758;SDS011;2393;50.560;12.636;2023-09-18T14:36:14;4.43;;;2.17;;
4758;SDS011;2393;50.560;12.636;2023-09-18T14:38:49;1.90;;;1.40;;
4758;SDS011;2393;50.560;12.636;2023-09-18T14:47:45;2.10;;;1.90;;
4758;SDS011;2393;50.560;12.636;2023-09-18T14:50:14;3.53;;;1.40;;
4758;SDS011;2393;50.560;12.636;2023-09-18T14:52:43;5.60;;;1.90;;
4758;SDS011;2393;50.560;12.636;2023-09-18T14:55:12;7.13;;;1.43;;
4758;SDS011;2393;50.560;12.636;2023-09-18T14:57:40;4.80;;;1.97;;
4758;SDS011;2393;50.560;12.636;2023-09-18T15:00:09;4.23;;;1.63;;
4758;SDS011;2393;50.560;12.636;2023-09-18T15:02:39;8.63;;;1.40;;
4758;SDS011;2393;50.560;12.636;2023-09-18T15:05:09;1.80;;;1.07;;
4758;SDS011;2393;50.560;12.636;2023-09-18T15:07:39;3.10;;;1.17;;
4758;SDS011;2393;50.560;12.636;2023-09-18T15:10:08;4.53;;;1.23;;
4758;SDS011;2393;50.560;12.636;2023-09-18T15:12:37;1.53;;;1.43;;
4758;SDS011;2393;50.560;12.636;2023-09-18T15:15:07;4.37;;;1.40;;
4758;SDS011;2393;50.560;12.636;2023-09-18T15:17:36;2.00;;;0.93;;
4758;SDS011;2393;50.560;12.636;2023-09-18T15:20:06;14.70;;;1.50;;
4758;SDS011;2393;50.560;12.636;2023-09-18T15:22:39;1.70;;;1.20;;
4758;SDS011;2393;50.560;12.636;2023-09-18T15:25:08;6.13;;;1.10;;
4758;SDS011;2393;50.560;12.636;2023-09-18T15:27:37;2.93;;;1.40;;
4758;SDS011;2393;50.560;12.636;2023-09-18T15:30:10;2.00;;;1.07;;
4758;SDS011;2393;50.560;12.636;2023-09-18T15:32:45;5.47;;;1.30;;
4758;SDS011;2393;50.560;12.636;2023-09-18T15:35:16;1.27;;;0.80;;
4758;SDS011;2393;50.560;12.636;2023-09-18T15:37:46;3.40;;;0.67;;
4758;SDS011;2393;50.560;12.636;2023-09-18T15:40:15;2.77;;;0.97;;
4758;SDS011;2393;50.560;12.636;2023-09-18T15:42:46;1.53;;;0.60;;